sensor_id;sensor_type;location;lat;lon;timestamp;pressure;altitude;pressure_sealevel;temperature;humidity
47883;BME280;37739;50.350;7.578;2023-07-13T00:02:15;99697.31;;;21.83;43.10
47883;BME280;37739;50.350;7.578;2023-07-13T00:04:40;99699.91;;;21.85;42.78
47883;BME280;37739;50.350;7.578;2023-07-13T00:07:07;99701.44;;;22.03;42.53
47883;BME280;37739;50.350;7.578;2023-07-13T00:09:34;99704.16;;;21.95;42.23
47883;BME280;37739;50.350;7.578;2023-07-13T00:12:02;99700.91;;;21.73;43.15
47883;BME280;37739;50.350;7.578;2023-07-13T00:14:29;99697.25;;;21.88;42.56
47883;BME280;37739;50.350;7.578;2023-07-13T00:16:55;99697.06;;;22.06;42.13
47883;BME280;37739;50.350;7.578;2023-07-13T00:19:21;99698.16;;;21.85;42.16
47883;BME280;37739;50.350;7.578;2023-07-13T00:21:51;99698.06;;;21.94;41.93
47883;BME280;37739;50.350;7.578;2023-07-13T00:24:20;99693.63;;;22.03;41.61
47883;BME280;37739;50.350;7.578;2023-07-13T00:26:51;99683.16;;;22.06;41.61
47883;BME280;37739;50.350;7.578;2023-07-13T00:29:19;99688.50;;;21.93;41.47
47883;BME280;37739;50.350;7.578;2023-07-13T00:31:47;99688.50;;;21.93;41.31
47883;BME280;37739;50.350;7.578;2023-07-13T00:34:12;99680.97;;;21.67;41.22
47883;BME280;37739;50.350;7.578;2023-07-13T00:36:37;99684.34;;;21.75;41.34
47883;BME280;37739;50.350;7.578;2023-07-13T00:39:03;99679.94;;;21.81;40.62
47883;BME280;37739;50.350;7.578;2023-07-13T00:41:32;99683.50;;;21.72;40.98
47883;BME280;37739;50.350;7.578;2023-07-13T00:43:57;99685.41;;;21.58;41.70
47883;BME280;37739;50.350;7.578;2023-07-13T00:46:29;99688.88;;;21.60;41.60
47883;BME280;37739;50.350;7.578;2023-07-13T00:49:03;99687.06;;;21.63;41.51
47883;BME280;37739;50.350;7.578;2023-07-13T00:54:14;99691.59;;;21.46;42.46
47883;BME280;37739;50.350;7.578;2023-07-13T00:56:43;99696.78;;;21.50;42.48
47883;BME280;37739;50.350;7.578;2023-07-13T00:59:13;99699.38;;;21.52;42.30
47883;BME280;37739;50.350;7.578;2023-07-13T01:01:40;99692.41;;;21.51;42.47
47883;BME280;37739;50.350;7.578;2023-07-13T01:04:08;99695.06;;;21.46;43.05
47883;BME280;37739;50.350;7.578;2023-07-13T01:06:37;99689.84;;;21.40;43.17
47883;BME280;37739;50.350;7.578;2023-07-13T01:09:04;99689.91;;;21.34;42.93
47883;BME280;37739;50.350;7.578;2023-07-13T01:11:32;99687.34;;;21.31;43.24
47883;BME280;37739;50.350;7.578;2023-07-13T01:13:58;99690.84;;;21.28;43.09
47883;BME280;37739;50.350;7.578;2023-07-13T01:16:32;99690.88;;;21.25;43.44
47883;BME280;37739;50.350;7.578;2023-07-13T01:18:59;99688.28;;;21.24;43.26
47883;BME280;37739;50.350;7.578;2023-07-13T01:21:28;99686.56;;;21.20;43.21
47883;BME280;37739;50.350;7.578;2023-07-13T01:23:54;99682.25;;;21.15;43.02
47883;BME280;37739;50.350;7.578;2023-07-13T01:26:20;99684.88;;;21.12;43.07
47883;BME280;37739;50.350;7.578;2023-07-13T01:28:48;99683.22;;;21.04;43.25
47883;BME280;37739;50.350;7.578;2023-07-13T01:31:13;99678.88;;;21.06;43.04
47883;BME280;37739;50.350;7.578;2023-07-13T01:33:41;99689.31;;;21.03;43.08
47883;BME280;37739;50.350;7.578;2023-07-13T01:36:11;99685.84;;;21.01;43.02
47883;BME280;37739;50.350;7.578;2023-07-13T01:38:36;99680.69;;;20.96;42.90
47883;BME280;37739;50.350;7.578;2023-07-13T01:41:04;99677.19;;;20.95;43.33
47883;BME280;37739;50.350;7.578;2023-07-13T01:43:29;99678.06;;;20.93;43.26
47883;BME280;37739;50.350;7.578;2023-07-13T01:45:55;99693.78;;;20.84;43.57
47883;BME280;37739;50.350;7.578;2023-07-13T01:48:20;99681.66;;;20.76;43.96
47883;BME280;37739;50.350;7.578;2023-07-13T01:50:47;99685.16;;;20.75;44.05
47883;BME280;37739;50.350;7.578;2023-07-13T01:53:18;99682.56;;;20.74;44.05
47883;BME280;37739;50.350;7.578;2023-07-13T01:55:43;99685.16;;;20.72;44.08
47883;BME280;37739;50.350;7.578;2023-07-13T01:58:08;99681.75;;;20.66;44.19
47883;BME280;37739;50.350;7.578;2023-07-13T02:00:34;99686.09;;;20.61;44.65
47883;BME280;37739;50.350;7.578;2023-07-13T02:02:59;99686.97;;;20.53;44.92
47883;BME280;37739;50.350;7.578;2023-07-13T02:05:25;99689.66;;;20.44;45.14
47883;BME280;37739;50.350;7.578;2023-07-13T02:07:53;99688.84;;;20.34;45.33
47883;BME280;37739;50.350;7.578;2023-07-13T02:10:18;99690.56;;;20.32;45.52
47883;BME280;37739;50.350;7.578;2023-07-13T02:12:48;99701.00;;;20.31;46.11
47883;BME280;37739;50.350;7.578;2023-07-13T02:15:15;99703.63;;;20.25;46.16
47883;BME280;37739;50.350;7.578;2023-07-13T02:17:43;99703.63;;;20.22;45.90
47883;BME280;37739;50.350;7.578;2023-07-13T02:20:08;99699.31;;;20.19;45.73
47883;BME280;37739;50.350;7.578;2023-07-13T02:22:34;99701.03;;;20.20;45.92
47883;BME280;37739;50.350;7.578;2023-07-13T02:25:00;99704.53;;;20.14;45.79
47883;BME280;37739;50.350;7.578;2023-07-13T02:27:25;99708.88;;;20.12;45.65
47883;BME280;37739;50.350;7.578;2023-07-13T02:29:51;99709.75;;;20.11;45.42
47883;BME280;37739;50.350;7.578;2023-07-13T02:32:17;99710.59;;;20.07;45.61
47883;BME280;37739;50.350;7.578;2023-07-13T02:34:42;99704.56;;;20.04;45.30
47883;BME280;37739;50.350;7.578;2023-07-13T02:37:10;99706.31;;;20.00;45.59
47883;BME280;37739;50.350;7.578;2023-07-13T02:39:38;99699.34;;;19.97;45.60
47883;BME280;37739;50.350;7.578;2023-07-13T02:42:04;99708.06;;;19.89;45.84
47883;BME280;37739;50.350;7.578;2023-07-13T02:44:29;99702.00;;;19.85;45.90
47883;BME280;37739;50.350;7.578;2023-07-13T02:46:57;99705.50;;;19.79;45.88
47883;BME280;37739;50.350;7.578;2023-07-13T02:49:22;99705.50;;;19.79;46.09
47883;BME280;37739;50.350;7.578;2023-07-13T02:51:50;99706.38;;;19.77;45.83
47883;BME280;37739;50.350;7.578;2023-07-13T02:54:16;99709.84;;;19.77;45.59
47883;BME280;37739;50.350;7.578;2023-07-13T02:56:41;99710.72;;;19.73;45.86
47883;BME280;37739;50.350;7.578;2023-07-13T02:59:08;99708.06;;;19.69;45.96
47883;BME280;37739;50.350;7.578;2023-07-13T03:01:37;99699.44;;;19.65;45.71
47883;BME280;37739;50.350;7.578;2023-07-13T03:04:03;99704.63;;;19.59;46.23
47883;BME280;37739;50.350;7.578;2023-07-13T03:06:28;99708.94;;;19.57;45.93
47883;BME280;37739;50.350;7.578;2023-07-13T03:08:56;99708.09;;;19.56;46.23
47883;BME280;37739;50.350;7.578;2023-07-13T03:11:25;99707.25;;;19.50;46.00
47883;BME280;37739;50.350;7.578;2023-07-13T03:13:51;99707.22;;;19.51;45.91
47883;BME280;37739;50.350;7.578;2023-07-13T03:16:19;99714.16;;;19.51;46.06
47883;BME280;37739;50.350;7.578;2023-07-13T03:18:46;99711.56;;;19.49;46.20
47883;BME280;37739;50.350;7.578;2023-07-13T03:21:11;99712.44;;;19.45;46.43
47883;BME280;37739;50.350;7.578;2023-07-13T03:23:37;99708.97;;;19.37;46.54
47883;BME280;37739;50.350;7.578;2023-07-13T03:26:14;99715.06;;;19.34;47.18
47883;BME280;37739;50.350;7.578;2023-07-13T03:28:40;99719.38;;;19.29;46.67
47883;BME280;37739;50.350;7.578;2023-07-13T03:31:11;99722.84;;;19.25;46.66
47883;BME280;37739;50.350;7.578;2023-07-13T03:33:39;99718.53;;;19.21;46.88
47883;BME280;37739;50.350;7.578;2023-07-13T03:36:06;99722.84;;;19.14;47.14
47883;BME280;37739;50.350;7.578;2023-07-13T03:38:34;99728.03;;;19.10;47.31
47883;BME280;37739;50.350;7.578;2023-07-13T03:41:02;99734.09;;;19.01;47.92
47883;BME280;37739;50.350;7.578;2023-07-13T03:43:30;99732.38;;;19.01;47.69
47883;BME280;37739;50.350;7.578;2023-07-13T03:45:55;99735.81;;;19.00;47.83
47883;BME280;37739;50.350;7.578;2023-07-13T03:48:20;99739.28;;;18.95;48.01
47883;BME280;37739;50.350;7.578;2023-07-13T03:50:47;99732.34;;;18.95;47.99
47883;BME280;37739;50.350;7.578;2023-07-13T03:53:13;99741.88;;;18.93;48.07
47883;BME280;37739;50.350;7.578;2023-07-13T03:55:41;99745.34;;;18.92;48.17
47883;BME280;37739;50.350;7.578;2023-07-13T03:58:34;99745.34;;;18.86;49.15
47883;BME280;37739;50.350;7.578;2023-07-13T04:01:04;99750.53;;;18.86;48.85
47883;BME280;37739;50.350;7.578;2023-07-13T04:03:31;99746.19;;;18.85;48.50
47883;BME280;37739;50.350;7.578;2023-07-13T04:05:58;99749.66;;;18.89;48.23
47883;BME280;37739;50.350;7.578;2023-07-13T04:08:30;99751.38;;;18.90;48.62
47883;BME280;37739;50.350;7.578;2023-07-13T04:10:56;99758.31;;;18.89;48.37
47883;BME280;37739;50.350;7.578;2023-07-13T04:13:24;99759.22;;;18.88;48.13
47883;BME280;37739;50.350;7.578;2023-07-13T04:15:50;99760.91;;;18.88;48.02
47883;BME280;37739;50.350;7.578;2023-07-13T04:18:19;99757.47;;;18.90;48.09
47883;BME280;37739;50.350;7.578;2023-07-13T04:20:47;99762.63;;;18.84;48.16
47883;BME280;37739;50.350;7.578;2023-07-13T04:23:13;99764.38;;;18.83;48.01
47883;BME280;37739;50.350;7.578;2023-07-13T04:25:42;99773.06;;;18.89;48.33
47883;BME280;37739;50.350;7.578;2023-07-13T04:28:10;99768.75;;;18.86;47.92
47883;BME280;37739;50.350;7.578;2023-07-13T04:30:35;99766.13;;;18.85;48.31
47883;BME280;37739;50.350;7.578;2023-07-13T04:33:01;99754.84;;;18.86;48.20
47883;BME280;37739;50.350;7.578;2023-07-13T04:35:29;99761.81;;;18.88;48.43
47883;BME280;37739;50.350;7.578;2023-07-13T04:37:54;99771.31;;;18.89;48.24
47883;BME280;37739;50.350;7.578;2023-07-13T04:40:21;99762.69;;;18.90;48.01
47883;BME280;37739;50.350;7.578;2023-07-13T04:42:49;99763.53;;;18.92;48.00
47883;BME280;37739;50.350;7.578;2023-07-13T04:45:17;99756.63;;;18.96;48.16
47883;BME280;37739;50.350;7.578;2023-07-13T04:47:42;99765.28;;;18.99;47.83
47883;BME280;37739;50.350;7.578;2023-07-13T04:50:13;99761.84;;;19.02;47.74
47883;BME280;37739;50.350;7.578;2023-07-13T04:52:46;99771.38;;;19.11;47.87
47883;BME280;37739;50.350;7.578;2023-07-13T04:55:11;99767.03;;;19.03;48.10
47883;BME280;37739;50.350;7.578;2023-07-13T04:57:39;99767.88;;;19.07;48.52
47883;BME280;37739;50.350;7.578;2023-07-13T05:00:05;99772.22;;;19.00;48.40
47883;BME280;37739;50.350;7.578;2023-07-13T05:02:30;99772.22;;;19.02;48.84
47883;BME280;37739;50.350;7.578;2023-07-13T05:04:57;99769.63;;;19.02;49.14
47883;BME280;37739;50.350;7.578;2023-07-13T05:07:29;99773.09;;;19.07;50.03
47883;BME280;37739;50.350;7.578;2023-07-13T05:09:57;99763.56;;;19.11;49.44
47883;BME280;37739;50.350;7.578;2023-07-13T05:12:24;99777.47;;;19.17;49.09
47883;BME280;37739;50.350;7.578;2023-07-13T05:14:54;99767.91;;;19.24;49.04
47883;BME280;37739;50.350;7.578;2023-07-13T05:17:20;99767.91;;;19.30;48.43
47883;BME280;37739;50.350;7.578;2023-07-13T05:19:45;99766.19;;;19.34;48.14
47883;BME280;37739;50.350;7.578;2023-07-13T05:22:10;99774.00;;;19.41;48.46
47883;BME280;37739;50.350;7.578;2023-07-13T05:24:42;99770.53;;;19.49;48.11
47883;BME280;37739;50.350;7.578;2023-07-13T05:27:10;99776.63;;;19.46;48.63
47883;BME280;37739;50.350;7.578;2023-07-13T05:29:38;99778.34;;;19.50;48.07
47883;BME280;37739;50.350;7.578;2023-07-13T05:32:06;99785.28;;;19.47;48.75
47883;BME280;37739;50.350;7.578;2023-07-13T05:34:32;99781.81;;;19.45;48.61
47883;BME280;37739;50.350;7.578;2023-07-13T05:36:59;99783.53;;;19.38;48.96
47883;BME280;37739;50.350;7.578;2023-07-13T05:39:25;99790.50;;;19.47;48.65
47883;BME280;37739;50.350;7.578;2023-07-13T05:41:52;99793.94;;;19.39;48.50
47883;BME280;37739;50.350;7.578;2023-07-13T05:44:17;99787.88;;;19.39;48.73
47883;BME280;37739;50.350;7.578;2023-07-13T05:46:44;99793.94;;;19.39;48.71
47883;BME280;37739;50.350;7.578;2023-07-13T05:49:09;99797.44;;;19.38;48.72
47883;BME280;37739;50.350;7.578;2023-07-13T05:51:35;99806.94;;;19.39;48.61
47883;BME280;37739;50.350;7.578;2023-07-13T05:54:03;99801.78;;;19.36;48.49
47883;BME280;37739;50.350;7.578;2023-07-13T05:56:30;99800.03;;;19.25;49.38
47883;BME280;37739;50.350;7.578;2023-07-13T05:58:56;99801.72;;;19.30;49.34
47883;BME280;37739;50.350;7.578;2023-07-13T06:01:24;99804.38;;;19.42;49.42
47883;BME280;37739;50.350;7.578;2023-07-13T06:03:49;99816.50;;;19.40;48.70
47883;BME280;37739;50.350;7.578;2023-07-13T06:06:17;99813.03;;;19.45;48.81
47883;BME280;37739;50.350;7.578;2023-07-13T06:08:42;99809.56;;;19.29;49.17
47883;BME280;37739;50.350;7.578;2023-07-13T06:11:15;99813.88;;;19.43;49.61
47883;BME280;37739;50.350;7.578;2023-07-13T06:13:41;99816.50;;;19.47;48.98
47883;BME280;37739;50.350;7.578;2023-07-13T06:16:07;99814.78;;;19.49;48.88
47883;BME280;37739;50.350;7.578;2023-07-13T06:18:36;99810.44;;;19.51;48.60
47883;BME280;37739;50.350;7.578;2023-07-13T06:21:16;99813.06;;;19.60;49.36
47883;BME280;37739;50.350;7.578;2023-07-13T06:23:44;99807.84;;;19.60;48.74
47883;BME280;37739;50.350;7.578;2023-07-13T06:26:10;99808.72;;;19.65;48.82
47883;BME280;37739;50.350;7.578;2023-07-13T06:28:38;99813.94;;;19.76;48.69
47883;BME280;37739;50.350;7.578;2023-07-13T06:31:08;99820.03;;;19.75;48.60
47883;BME280;37739;50.350;7.578;2023-07-13T06:33:34;99823.47;;;19.80;48.70
47883;BME280;37739;50.350;7.578;2023-07-13T06:36:02;99817.41;;;19.86;48.24
47883;BME280;37739;50.350;7.578;2023-07-13T06:38:27;99823.50;;;19.94;48.18
47883;BME280;37739;50.350;7.578;2023-07-13T06:40:52;99820.88;;;19.89;48.54
47883;BME280;37739;50.350;7.578;2023-07-13T06:43:18;99819.16;;;19.94;48.61
47883;BME280;37739;50.350;7.578;2023-07-13T06:45:48;99820.88;;;19.98;48.60
47883;BME280;37739;50.350;7.578;2023-07-13T06:48:19;99828.69;;;19.98;48.81
47883;BME280;37739;50.350;7.578;2023-07-13T06:50:48;99826.09;;;20.02;49.08
47883;BME280;37739;50.350;7.578;2023-07-13T06:53:14;99822.59;;;20.07;48.68
47883;BME280;37739;50.350;7.578;2023-07-13T06:55:40;99825.16;;;20.24;48.07
47883;BME280;37739;50.350;7.578;2023-07-13T06:58:05;99826.88;;;20.40;47.60
47883;BME280;37739;50.350;7.578;2023-07-13T07:00:31;99835.56;;;20.44;47.97
47883;BME280;37739;50.350;7.578;2023-07-13T07:02:59;99834.69;;;20.50;47.80
47883;BME280;37739;50.350;7.578;2023-07-13T07:05:26;99837.25;;;20.53;47.37
47883;BME280;37739;50.350;7.578;2023-07-13T07:07:55;99834.66;;;20.62;47.11
47883;BME280;37739;50.350;7.578;2023-07-13T07:10:22;99834.63;;;20.71;46.95
47883;BME280;37739;50.350;7.578;2023-07-13T07:12:50;99830.28;;;20.75;46.88
47883;BME280;37739;50.350;7.578;2023-07-13T07:15:20;99829.41;;;20.68;47.09
47883;BME280;37739;50.350;7.578;2023-07-13T07:17:48;99838.06;;;20.81;46.87
47883;BME280;37739;50.350;7.578;2023-07-13T07:20:13;99838.84;;;20.98;46.26
47883;BME280;37739;50.350;7.578;2023-07-13T07:22:41;99839.72;;;20.97;46.54
47883;BME280;37739;50.350;7.578;2023-07-13T07:25:07;99836.22;;;21.08;46.19
47883;BME280;37739;50.350;7.578;2023-07-13T07:27:32;99838.78;;;21.11;46.34
47883;BME280;37739;50.350;7.578;2023-07-13T07:29:58;99837.09;;;21.04;46.47
47883;BME280;37739;50.350;7.578;2023-07-13T07:32:26;99834.47;;;21.10;46.27
47883;BME280;37739;50.350;7.578;2023-07-13T07:34:51;99840.53;;;21.10;46.25
47883;BME280;37739;50.350;7.578;2023-07-13T07:37:16;99844.91;;;21.08;46.21
47883;BME280;37739;50.350;7.578;2023-07-13T07:39:44;99833.53;;;21.20;45.92
47883;BME280;37739;50.350;7.578;2023-07-13T07:42:10;99837.75;;;21.41;45.63
47883;BME280;37739;50.350;7.578;2023-07-13T07:44:35;99832.44;;;21.55;45.21
47883;BME280;37739;50.350;7.578;2023-07-13T07:47:01;99836.69;;;21.71;45.03
47883;BME280;37739;50.350;7.578;2023-07-13T07:49:27;99827.84;;;21.88;44.80
47883;BME280;37739;50.350;7.578;2023-07-13T07:51:52;99828.66;;;21.93;44.61
47883;BME280;37739;50.350;7.578;2023-07-13T07:54:17;99827.06;;;21.78;44.84
47883;BME280;37739;50.350;7.578;2023-07-13T07:56:45;99827.91;;;21.80;44.84
47883;BME280;37739;50.350;7.578;2023-07-13T07:59:15;99824.31;;;21.92;44.78
47883;BME280;37739;50.350;7.578;2023-07-13T08:01:40;99823.31;;;22.07;44.54
47883;BME280;37739;50.350;7.578;2023-07-13T08:04:06;99822.38;;;22.15;44.31
47883;BME280;37739;50.350;7.578;2023-07-13T08:06:32;99819.69;;;22.20;44.09
47883;BME280;37739;50.350;7.578;2023-07-13T08:08:59;99819.66;;;22.25;43.82
47883;BME280;37739;50.350;7.578;2023-07-13T08:11:24;99823.94;;;22.37;43.67
47883;BME280;37739;50.350;7.578;2023-07-13T08:13:52;99810.09;;;22.27;43.34
47883;BME280;37739;50.350;7.578;2023-07-13T08:16:17;99815.09;;;22.45;43.25
47883;BME280;37739;50.350;7.578;2023-07-13T08:18:43;99812.47;;;22.50;43.10
47883;BME280;37739;50.350;7.578;2023-07-13T08:21:09;99811.56;;;22.48;42.86
47883;BME280;37739;50.350;7.578;2023-07-13T08:23:37;99820.03;;;22.70;42.70
47883;BME280;37739;50.350;7.578;2023-07-13T08:26:02;99808.53;;;22.85;41.89
47883;BME280;37739;50.350;7.578;2023-07-13T08:28:29;99811.81;;;22.99;41.29
47883;BME280;37739;50.350;7.578;2023-07-13T08:30:55;99814.25;;;23.13;41.23
47883;BME280;37739;50.350;7.578;2023-07-13T08:33:22;99806.41;;;23.15;40.68
47883;BME280;37739;50.350;7.578;2023-07-13T08:35:50;99805.53;;;23.16;40.63
47883;BME280;37739;50.350;7.578;2023-07-13T08:38:18;99809.81;;;23.21;40.43
47883;BME280;37739;50.350;7.578;2023-07-13T08:40:45;99809.75;;;23.23;40.10
47883;BME280;37739;50.350;7.578;2023-07-13T08:43:16;99814.09;;;23.25;39.33
47883;BME280;37739;50.350;7.578;2023-07-13T08:48:41;99807.19;;;23.21;39.05
47883;BME280;37739;50.350;7.578;2023-07-13T08:53:53;99799.00;;;23.43;38.07
47883;BME280;37739;50.350;7.578;2023-07-13T08:56:22;99801.50;;;23.50;38.58
47883;BME280;37739;50.350;7.578;2023-07-13T08:58:56;99796.16;;;23.58;38.15
47883;BME280;37739;50.350;7.578;2023-07-13T09:01:45;99800.53;;;23.56;37.80
47883;BME280;37739;50.350;7.578;2023-07-13T09:04:24;99795.16;;;23.65;38.29
47883;BME280;37739;50.350;7.578;2023-07-13T09:12:35;99794.75;;;23.90;36.58
47883;BME280;37739;50.350;7.578;2023-07-13T09:15:21;99798.34;;;23.84;36.56
47883;BME280;37739;50.350;7.578;2023-07-13T09:17:49;99793.91;;;23.89;36.50
47883;BME280;37739;50.350;7.578;2023-07-13T09:20:32;99801.75;;;23.89;36.17
47883;BME280;37739;50.350;7.578;2023-07-13T09:23:01;99786.59;;;24.07;35.94
47883;BME280;37739;50.350;7.578;2023-07-13T09:25:34;99798.56;;;24.20;35.92
47883;BME280;37739;50.350;7.578;2023-07-13T09:28:24;99796.72;;;24.27;34.83
47883;BME280;37739;50.350;7.578;2023-07-13T09:31:15;99796.50;;;24.36;34.88
47883;BME280;37739;50.350;7.578;2023-07-13T09:33:44;99796.50;;;24.38;35.28
47883;BME280;37739;50.350;7.578;2023-07-13T09:36:24;99798.91;;;24.48;34.70
47883;BME280;37739;50.350;7.578;2023-07-13T09:39:03;99798.81;;;24.55;33.98
47883;BME280;37739;50.350;7.578;2023-07-13T09:41:39;99796.75;;;24.69;33.68
47883;BME280;37739;50.350;7.578;2023-07-13T09:46:34;99797.22;;;24.88;34.42
47883;BME280;37739;50.350;7.578;2023-07-13T09:48:59;99791.81;;;24.96;33.99
47883;BME280;37739;50.350;7.578;2023-07-13T09:51:27;99802.94;;;25.07;33.68
47883;BME280;37739;50.350;7.578;2023-07-13T09:53:53;99788.44;;;25.31;34.18
47883;BME280;37739;50.350;7.578;2023-07-13T09:56:24;99792.69;;;25.71;33.30
47883;BME280;37739;50.350;7.578;2023-07-13T09:58:51;99781.44;;;25.66;33.84
47883;BME280;37739;50.350;7.578;2023-07-13T10:01:31;99785.19;;;25.90;32.81
47883;BME280;37739;50.350;7.578;2023-07-13T10:03:57;99785.19;;;26.24;33.23
47883;BME280;37739;50.350;7.578;2023-07-13T10:06:25;99786.78;;;26.30;32.71
47883;BME280;37739;50.350;7.578;2023-07-13T10:08:56;99781.09;;;26.45;31.63
47883;BME280;37739;50.350;7.578;2023-07-13T10:11:31;99789.19;;;26.38;31.71
47883;BME280;37739;50.350;7.578;2023-07-13T10:14:09;99786.75;;;26.63;31.46
47883;BME280;37739;50.350;7.578;2023-07-13T10:16:39;99775.69;;;26.81;31.84
47883;BME280;37739;50.350;7.578;2023-07-13T10:19:18;99783.44;;;26.86;31.30
47883;BME280;37739;50.350;7.578;2023-07-13T10:21:54;99795.81;;;26.21;31.80
47883;BME280;37739;50.350;7.578;2023-07-13T10:24:31;99786.91;;;26.25;30.92
47883;BME280;37739;50.350;7.578;2023-07-13T10:29:37;99785.31;;;26.51;30.73
47883;BME280;37739;50.350;7.578;2023-07-13T10:32:11;99787.91;;;26.53;30.83
47883;BME280;37739;50.350;7.578;2023-07-13T10:34:39;99783.63;;;26.80;31.16
47883;BME280;37739;50.350;7.578;2023-07-13T10:37:09;99794.19;;;27.08;30.96
47883;BME280;37739;50.350;7.578;2023-07-13T10:39:40;99794.78;;;27.16;30.89
47883;BME280;37739;50.350;7.578;2023-07-13T10:42:11;99785.88;;;27.20;30.10
47883;BME280;37739;50.350;7.578;2023-07-13T10:44:42;99795.47;;;26.95;30.90
47883;BME280;37739;50.350;7.578;2023-07-13T10:47:15;99797.06;;;26.71;30.63
47883;BME280;37739;50.350;7.578;2023-07-13T10:49:43;99794.97;;;26.82;30.86
47883;BME280;37739;50.350;7.578;2023-07-13T10:52:40;99813.47;;;27.09;29.83
47883;BME280;37739;50.350;7.578;2023-07-13T10:55:33;99796.66;;;26.53;29.79
47883;BME280;37739;50.350;7.578;2023-07-13T10:58:11;99811.06;;;26.40;30.89
47883;BME280;37739;50.350;7.578;2023-07-13T11:00:46;99816.81;;;26.54;30.23
47883;BME280;37739;50.350;7.578;2023-07-13T11:03:15;99809.44;;;26.34;31.05
47883;BME280;37739;50.350;7.578;2023-07-13T11:05:43;99814.72;;;26.01;31.14
47883;BME280;37739;50.350;7.578;2023-07-13T11:19:18;99805.06;;;26.02;30.70
47883;BME280;37739;50.350;7.578;2023-07-13T11:24:56;99817.94;;;25.77;31.22
47883;BME280;37739;50.350;7.578;2023-07-13T11:30:21;99815.03;;;25.53;31.80
47883;BME280;37739;50.350;7.578;2023-07-13T11:33:02;99822.84;;;25.56;32.05
47883;BME280;37739;50.350;7.578;2023-07-13T11:35:33;99821.84;;;25.62;32.50
47883;BME280;37739;50.350;7.578;2023-07-13T11:38:01;99822.88;;;25.55;32.19
47883;BME280;37739;50.350;7.578;2023-07-13T11:40:27;99813.16;;;25.58;32.48
47883;BME280;37739;50.350;7.578;2023-07-13T11:43:00;99831.72;;;25.51;32.14
47883;BME280;37739;50.350;7.578;2023-07-13T11:45:27;99834.59;;;25.40;32.26
47883;BME280;37739;50.350;7.578;2023-07-13T11:47:53;99835.50;;;25.39;32.36
47883;BME280;37739;50.350;7.578;2023-07-13T11:50:23;99835.38;;;25.45;32.31
47883;BME280;37739;50.350;7.578;2023-07-13T11:52:50;99833.31;;;25.58;32.39
47883;BME280;37739;50.350;7.578;2023-07-13T11:55:18;99826.97;;;25.66;32.57
47883;BME280;37739;50.350;7.578;2023-07-13T11:57:55;99833.06;;;25.67;31.86
47883;BME280;37739;50.350;7.578;2023-07-13T12:00:26;99840.09;;;25.66;31.91
47883;BME280;37739;50.350;7.578;2023-07-13T12:02:59;99834.09;;;25.61;32.17
47883;BME280;37739;50.350;7.578;2023-07-13T12:05:25;99827.09;;;25.62;31.97
47883;BME280;37739;50.350;7.578;2023-07-13T12:07:51;99832.59;;;25.51;31.89
47883;BME280;37739;50.350;7.578;2023-07-13T12:10:18;99835.06;;;25.57;32.22
47883;BME280;37739;50.350;7.578;2023-07-13T12:12:52;99836.13;;;25.50;32.25
47883;BME280;37739;50.350;7.578;2023-07-13T12:15:21;99847.41;;;25.13;32.42
47883;BME280;37739;50.350;7.578;2023-07-13T12:17:48;99835.94;;;25.17;33.25
47883;BME280;37739;50.350;7.578;2023-07-13T12:20:37;99847.03;;;25.33;32.28
47883;BME280;37739;50.350;7.578;2023-07-13T12:23:05;99834.91;;;25.26;32.87
47883;BME280;37739;50.350;7.578;2023-07-13T12:25:33;99834.06;;;25.25;32.79
47883;BME280;37739;50.350;7.578;2023-07-13T12:28:19;99848.16;;;25.20;31.60
47883;BME280;37739;50.350;7.578;2023-07-13T12:30:57;99844.59;;;25.24;32.12
47883;BME280;37739;50.350;7.578;2023-07-13T12:33:27;99843.16;;;25.48;31.99
47883;BME280;37739;50.350;7.578;2023-07-13T12:36:03;99841.09;;;25.61;31.28
47883;BME280;37739;50.350;7.578;2023-07-13T12:38:31;99846.31;;;25.62;32.05
47883;BME280;37739;50.350;7.578;2023-07-13T12:40:57;99844.41;;;25.69;31.72
47883;BME280;37739;50.350;7.578;2023-07-13T12:43:23;99844.47;;;25.67;32.18
47883;BME280;37739;50.350;7.578;2023-07-13T12:46:01;99842.41;;;25.43;31.62
47883;BME280;37739;50.350;7.578;2023-07-13T12:48:38;99856.69;;;25.31;31.66
47883;BME280;37739;50.350;7.578;2023-07-13T12:51:11;99861.22;;;25.23;31.95
47883;BME280;37739;50.350;7.578;2023-07-13T12:53:43;99857.03;;;25.14;31.75
47883;BME280;37739;50.350;7.578;2023-07-13T12:56:19;99855.25;;;25.15;32.07
47883;BME280;37739;50.350;7.578;2023-07-13T12:58:46;99868.25;;;25.22;31.96
47883;BME280;37739;50.350;7.578;2023-07-13T13:01:21;99864.88;;;25.16;31.92
47883;BME280;37739;50.350;7.578;2023-07-13T13:03:51;99872.66;;;25.19;31.73
47883;BME280;37739;50.350;7.578;2023-07-13T13:08:45;99875.81;;;25.36;31.66
47883;BME280;37739;50.350;7.578;2023-07-13T13:11:10;99867.25;;;25.28;31.77
47883;BME280;37739;50.350;7.578;2023-07-13T13:13:38;99870.53;;;24.96;32.48
47883;BME280;37739;50.350;7.578;2023-07-13T13:18:46;99872.00;;;24.67;32.89
47883;BME280;37739;50.350;7.578;2023-07-13T13:21:15;99866.66;;;24.73;33.21
47883;BME280;37739;50.350;7.578;2023-07-13T13:23:42;99872.50;;;24.84;33.01
47883;BME280;37739;50.350;7.578;2023-07-13T13:26:11;99876.75;;;24.46;33.44
47883;BME280;37739;50.350;7.578;2023-07-13T13:28:37;99872.47;;;24.42;33.17
47883;BME280;37739;50.350;7.578;2023-07-13T13:31:02;99867.94;;;24.52;33.85
47883;BME280;37739;50.350;7.578;2023-07-13T13:33:30;99879.75;;;24.73;33.63
47883;BME280;37739;50.350;7.578;2023-07-13T13:35:55;99874.41;;;24.78;32.78
47883;BME280;37739;50.350;7.578;2023-07-13T13:38:25;99866.34;;;24.88;33.35
47883;BME280;37739;50.350;7.578;2023-07-13T13:40:51;99878.44;;;24.94;33.19
47883;BME280;37739;50.350;7.578;2023-07-13T13:43:21;99870.28;;;25.08;32.53
47883;BME280;37739;50.350;7.578;2023-07-13T13:45:51;99871.09;;;25.12;32.88
47883;BME280;37739;50.350;7.578;2023-07-13T13:48:33;99871.16;;;25.08;32.32
47883;BME280;37739;50.350;7.578;2023-07-13T13:51:00;99867.63;;;25.09;32.41